Time;durP1;ratioP1;P1;durP2;ratioP2;P2;SDS_P1;SDS_P2;PMS_P1;PMS_P2;Temp;Humidity;BMP_temperature;BMP_pressure;BME280_temperature;BME280_humidity;BME280_pressure;Samples;Min_cycle;Max_cycle;Signal;HPM_P1;HPM_P2
2022/01/09 00:01:40;;;;;;;9.27;8.45;;;4.50;99.90;;;;;;5087565;28;20413;-73
2022/01/09 00:04:05;;;;;;;10.00;9.20;;;4.60;99.90;;;;;;5115611;27;20127;-73
2022/01/09 00:06:31;;;;;;;8.93;8.13;;;4.60;99.90;;;;;;5081819;28;20047;-72
2022/01/09 00:08:56;;;;;;;9.52;8.73;;;4.60;99.90;;;;;;5085937;28;20051;-72
2022/01/09 00:11:26;;;;;;;9.10;8.30;;;4.60;99.90;;;;;;5086454;28;20167;-73
2022/01/09 00:13:53;;;;;;;9.73;8.85;;;4.60;99.90;;;;;;5085898;28;20054;-73
2022/01/09 00:16:20;;;;;;;10.30;9.40;;;4.50;99.90;;;;;;5116840;27;20044;-73
2022/01/09 00:18:46;;;;;;;9.32;8.52;;;4.60;99.90;;;;;;5116549;27;20594;-73
2022/01/09 00:21:12;;;;;;;9.45;8.55;;;4.60;99.90;;;;;;5083317;28;20044;-73
2022/01/09 00:23:38;;;;;;;10.13;9.23;;;4.60;99.90;;;;;;5088008;28;20039;-73
2022/01/09 00:26:06;;;;;;;10.20;9.30;;;4.60;99.90;;;;;;5085713;28;20616;-73
2022/01/09 00:28:32;;;;;;;9.70;8.80;;;4.60;99.90;;;;;;5082675;28;20079;-73
2022/01/09 00:30:57;;;;;;;11.02;10.07;;;4.50;99.90;;;;;;5118585;27;20495;-72
2022/01/09 00:33:23;;;;;;;10.02;9.13;;;4.60;99.90;;;;;;5084700;28;20055;-72
2022/01/09 00:35:50;;;;;;;10.50;9.57;;;4.60;99.90;;;;;;5087737;28;20036;-73
2022/01/09 00:38:17;;;;;;;10.23;9.32;;;4.60;99.90;;;;;;5083663;28;20028;-72
2022/01/09 00:40:46;;;;;;;8.30;7.57;;;4.60;99.90;;;;;;5082590;28;20036;-72
2022/01/09 00:43:12;;;;;;;9.68;8.80;;;4.60;99.90;;;;;;5085220;28;20043;-72
2022/01/09 00:45:39;;;;;;;14.25;8.90;;;4.60;99.90;;;;;;5121015;27;20802;-73
2022/01/09 00:48:05;;;;;;;9.93;9.02;;;4.60;99.90;;;;;;5086267;28;20090;-73
2022/01/09 00:50:31;;;;;;;10.38;9.43;;;4.60;99.90;;;;;;5084737;28;20059;-73
2022/01/09 00:52:57;;;;;;;10.48;9.48;;;4.60;99.90;;;;;;5092373;28;20163;-73
2022/01/09 00:55:22;;;;;;;10.20;9.30;;;4.60;99.90;;;;;;5093382;28;20470;-73
2022/01/09 00:57:48;;;;;;;10.75;9.85;;;4.70;99.90;;;;;;5087531;28;20048;-73
2022/01/09 01:00:14;;;;;;;12.13;9.77;;;4.60;99.90;;;;;;5090569;28;20039;-73
2022/01/09 01:02:40;;;;;;;11.13;9.93;;;4.70;99.90;;;;;;5125674;27;20047;-73
2022/01/09 01:05:07;;;;;;;11.25;10.15;;;4.60;99.90;;;;;;5088626;28;20028;-73
2022/01/09 01:07:33;;;;;;;11.63;10.48;;;4.70;99.90;;;;;;5091824;28;20045;-73
2022/01/09 01:09:59;;;;;;;10.63;9.63;;;4.70;99.90;;;;;;5088727;28;20054;-73
2022/01/09 01:12:27;;;;;;;11.32;10.38;;;4.70;99.90;;;;;;5088471;28;20048;-73
2022/01/09 01:14:53;;;;;;;11.35;10.35;;;4.70;99.90;;;;;;5124544;27;20048;-73
2022/01/09 01:17:20;;;;;;;10.85;9.95;;;4.70;99.90;;;;;;5091751;28;20035;-73
2022/01/09 01:19:46;;;;;;;10.55;9.65;;;4.70;99.90;;;;;;5091605;28;20039;-73
2022/01/09 01:22:12;;;;;;;12.00;10.90;;;4.70;99.90;;;;;;5085998;28;20047;-73
2022/01/09 01:24:38;;;;;;;12.13;10.95;;;4.70;99.90;;;;;;5120926;27;20098;-73
2022/01/09 01:27:05;;;;;;;11.40;10.40;;;4.70;99.90;;;;;;5086253;28;20078;-73
2022/01/09 01:29:30;;;;;;;10.98;9.80;;;4.70;99.90;;;;;;5089079;28;20056;-72
2022/01/09 01:31:56;;;;;;;11.75;10.50;;;5.00;99.90;;;;;;5094342;28;20027;-73
2022/01/09 01:34:24;;;;;;;12.43;11.25;;;4.70;99.90;;;;;;5089299;28;20081;-73
2022/01/09 01:36:50;;;;;;;11.38;10.38;;;4.70;99.90;;;;;;5119320;27;20122;-73
2022/01/09 01:39:15;;;;;;;10.88;9.95;;;4.80;99.90;;;;;;5086060;28;20040;-73
2022/01/09 01:41:41;;;;;;;11.00;9.90;;;4.80;99.90;;;;;;5084967;28;20064;-73
2022/01/09 01:44:11;;;;;;;10.35;9.27;;;4.80;99.90;;;;;;5076397;28;20031;-73
2022/01/09 01:46:37;;;;;;;9.68;8.77;;;4.80;99.90;;;;;;5091122;28;20044;-73
2022/01/09 01:49:05;;;;;;;10.32;9.43;;;4.80;99.90;;;;;;5087368;28;20446;-73
2022/01/09 01:51:31;;;;;;;9.43;8.57;;;4.80;99.90;;;;;;5086567;28;20639;-73
2022/01/09 01:53:57;;;;;;;10.85;9.75;;;4.90;99.90;;;;;;5085815;28;20052;-73
2022/01/09 01:56:23;;;;;;;10.50;9.60;;;4.90;99.90;;;;;;5089594;28;20795;-72
2022/01/09 01:58:50;;;;;;;10.18;9.18;;;4.80;99.90;;;;;;5086980;28;20036;-72
2022/01/09 02:01:16;;;;;;;10.13;9.23;;;4.90;99.90;;;;;;5084248;28;20043;-73
2022/01/09 02:03:43;;;;;;;10.93;9.88;;;4.90;99.90;;;;;;5087544;28;20064;-73
2022/01/09 02:06:08;;;;;;;10.57;9.57;;;5.00;99.90;;;;;;5083370;28;20047;-72
2022/01/09 02:08:34;;;;;;;10.90;9.90;;;4.90;99.90;;;;;;5117850;27;20766;-73
2022/01/09 02:11:00;;;;;;;9.02;8.32;;;4.90;99.90;;;;;;5067579;28;20040;-73
2022/01/09 02:13:25;;;;;;;11.10;10.02;;;5.00;99.90;;;;;;5086818;28;20032;-73
2022/01/09 02:15:56;;;;;;;10.38;9.45;;;4.90;99.90;;;;;;5086708;28;20048;-73
2022/01/09 02:18:23;;;;;;;10.15;8.77;;;4.90;99.90;;;;;;5090708;28;20032;-73
2022/01/09 02:20:50;;;;;;;10.30;9.32;;;4.90;99.90;;;;;;5088873;28;20055;-73
2022/01/09 02:23:17;;;;;;;11.32;9.80;;;5.00;99.90;;;;;;5091368;28;20595;-73
2022/01/09 02:25:44;;;;;;;11.40;10.30;;;5.00;99.90;;;;;;5106350;27;20123;-73
2022/01/09 02:28:11;;;;;;;11.15;9.48;;;5.00;99.90;;;;;;5106802;27;20043;-73
2022/01/09 02:30:37;;;;;;;11.25;10.15;;;5.00;99.90;;;;;;5089582;28;20556;-73
2022/01/09 02:33:06;;;;;;;10.90;9.82;;;5.00;99.90;;;;;;5086300;28;20066;-73
2022/01/09 02:35:33;;;;;;;10.60;9.57;;;5.10;99.90;;;;;;5118644;27;20082;-73
2022/01/09 02:37:59;;;;;;;9.80;8.68;;;5.10;99.90;;;;;;5090233;28;20070;-73
2022/01/09 02:40:25;;;;;;;9.57;8.65;;;5.00;99.90;;;;;;5085904;28;20135;-73
2022/01/09 02:42:52;;;;;;;11.05;9.25;;;5.10;99.90;;;;;;5089720;28;20048;-73
2022/01/09 02:45:21;;;;;;;8.98;7.22;;;5.20;99.90;;;;;;5084061;28;20033;-73
2022/01/09 02:47:49;;;;;;;7.68;6.18;;;5.20;99.90;;;;;;5089378;28;20109;-73
2022/01/09 02:52:56;;;;;;;14.60;5.93;;;5.30;99.90;;;;;;5084847;28;20048;-73
2022/01/09 02:55:23;;;;;;;19.00;4.88;;;5.30;99.90;;;;;;5091995;28;20611;-73
2022/01/09 02:57:54;;;;;;;15.23;5.00;;;5.40;99.90;;;;;;5087662;28;20043;-73
2022/01/09 03:00:22;;;;;;;23.95;4.35;;;5.50;99.90;;;;;;5086767;28;20085;-73
2022/01/09 03:02:48;;;;;;;24.02;5.47;;;5.50;99.90;;;;;;5092250;28;20036;-73
2022/01/09 03:05:15;;;;;;;21.58;4.07;;;5.60;99.90;;;;;;5085530;28;20071;-73
2022/01/09 03:07:42;;;;;;;19.50;3.05;;;5.60;99.90;;;;;;5082453;28;20441;-73
2022/01/09 03:10:10;;;;;;;22.83;4.68;;;5.60;99.90;;;;;;5088504;28;20099;-73
2022/01/09 03:12:36;;;;;;;24.25;3.92;;;5.70;99.90;;;;;;5087117;28;20123;-73
2022/01/09 03:15:03;;;;;;;31.15;4.28;;;5.70;99.90;;;;;;5086269;28;20041;-73
2022/01/09 03:17:29;;;;;;;29.00;4.93;;;5.80;99.90;;;;;;5090230;28;20044;-73
2022/01/09 03:19:55;;;;;;;40.22;4.75;;;5.80;99.90;;;;;;5087287;28;20055;-73
2022/01/09 03:22:21;;;;;;;37.40;5.85;;;5.80;99.90;;;;;;5085368;28;20044;-73
2022/01/09 03:24:46;;;;;;;30.33;4.10;;;5.80;99.90;;;;;;5083267;28;20042;-73
2022/01/09 03:27:12;;;;;;;45.38;5.30;;;5.90;99.90;;;;;;5082977;28;20055;-73
2022/01/09 03:29:39;;;;;;;45.38;6.47;;;6.00;99.90;;;;;;5085493;28;20083;-73
2022/01/09 03:32:05;;;;;;;48.63;5.70;;;6.00;99.90;;;;;;5085443;28;20069;-73
2022/01/09 03:34:32;;;;;;;43.65;6.55;;;6.00;99.90;;;;;;5090221;28;20036;-73
2022/01/09 03:36:57;;;;;;;56.75;5.82;;;6.00;99.90;;;;;;5087157;28;20064;-73
2022/01/09 03:39:23;;;;;;;44.65;6.05;;;6.00;99.90;;;;;;5092330;28;20064;-73
2022/01/09 03:41:48;;;;;;;50.72;6.22;;;6.00;99.90;;;;;;5085941;28;20070;-73
2022/01/09 03:44:14;;;;;;;44.05;5.97;;;6.10;99.90;;;;;;5082315;28;20047;-73
2022/01/09 03:46:40;;;;;;;55.03;7.70;;;6.10;99.90;;;;;;5088163;28;20044;-73
2022/01/09 03:49:06;;;;;;;39.80;5.47;;;6.10;99.90;;;;;;5086810;28;20029;-73
2022/01/09 03:51:36;;;;;;;53.05;8.10;;;6.20;99.90;;;;;;5088213;28;20091;-73
2022/01/09 03:54:03;;;;;;;49.97;7.28;;;6.20;99.90;;;;;;5084789;28;20088;-73
2022/01/09 03:56:28;;;;;;;50.15;7.53;;;6.20;99.90;;;;;;5089589;28;20071;-73
2022/01/09 03:58:54;;;;;;;50.53;6.97;;;6.20;99.90;;;;;;5089283;28;20072;-73
2022/01/09 04:01:20;;;;;;;57.58;7.82;;;6.20;99.90;;;;;;5086030;28;20044;-73
2022/01/09 04:03:46;;;;;;;45.55;6.40;;;6.20;99.90;;;;;;5080538;28;20047;-73
2022/01/09 04:06:11;;;;;;;43.13;6.13;;;6.20;99.90;;;;;;5108293;27;20111;-73
2022/01/09 04:08:38;;;;;;;50.30;6.18;;;6.20;99.90;;;;;;5084378;28;20123;-73
2022/01/09 04:11:05;;;;;;;30.40;5.63;;;6.20;99.90;;;;;;5079529;28;20054;-73
2022/01/09 04:13:31;;;;;;;36.92;4.65;;;6.20;99.90;;;;;;5077765;28;20474;-73
2022/01/09 04:15:57;;;;;;;38.83;5.30;;;6.20;99.90;;;;;;5078689;28;20604;-73
2022/01/09 04:18:23;;;;;;;42.28;5.38;;;6.20;99.90;;;;;;5078676;28;20040;-74
2022/01/09 04:20:51;;;;;;;43.10;7.93;;;6.10;99.90;;;;;;5080793;28;20471;-73
2022/01/09 04:23:20;;;;;;;48.22;7.47;;;6.20;99.90;;;;;;5077688;28;20047;-73
2022/01/09 04:25:46;;;;;;;41.28;5.68;;;6.20;99.90;;;;;;5095361;28;20123;-74
2022/01/09 04:28:13;;;;;;;32.85;4.85;;;6.20;99.90;;;;;;5083706;28;20547;-74
2022/01/09 04:30:39;;;;;;;48.15;6.80;;;6.20;99.90;;;;;;5081565;28;20080;-73
2022/01/09 04:33:05;;;;;;;44.55;7.80;;;6.20;99.90;;;;;;5114593;27;20043;-73
2022/01/09 04:35:31;;;;;;;36.83;4.90;;;6.20;99.90;;;;;;5082746;28;20040;-73
2022/01/09 04:37:57;;;;;;;40.28;6.10;;;6.10;99.90;;;;;;5094801;27;20096;-74
2022/01/09 04:40:23;;;;;;;41.00;5.65;;;6.20;99.90;;;;;;5084981;28;20043;-73
2022/01/09 04:42:54;;;;;;;31.88;4.82;;;6.20;99.90;;;;;;5084326;28;20485;-74
2022/01/09 04:45:21;;;;;;;35.83;5.43;;;6.20;99.90;;;;;;5079417;28;20040;-73
2022/01/09 04:47:48;;;;;;;41.95;4.50;;;6.20;99.90;;;;;;5082051;28;20429;-73
2022/01/09 04:50:26;;;;;;;40.05;4.88;;;6.10;99.90;;;;;;5082589;28;20059;-73
2022/01/09 04:52:58;;;;;;;38.90;5.32;;;6.10;99.90;;;;;;5081223;28;20044;-73
2022/01/09 04:55:25;;;;;;;35.40;6.65;;;6.10;99.90;;;;;;5078424;28;20047;-73
2022/01/09 04:57:50;;;;;;;39.00;4.38;;;6.10;99.90;;;;;;5095574;27;20044;-72
2022/01/09 05:00:16;;;;;;;32.70;4.32;;;6.10;99.90;;;;;;5063638;28;20033;-72
2022/01/09 05:02:42;;;;;;;35.95;4.53;;;6.10;99.90;;;;;;5081959;28;20131;-72
2022/01/09 05:05:11;;;;;;;28.25;4.45;;;6.10;99.90;;;;;;5081249;28;20063;-73
2022/01/09 05:07:37;;;;;;;40.95;3.92;;;6.10;99.90;;;;;;5083166;28;20842;-73
2022/01/09 05:10:05;;;;;;;30.90;4.35;;;6.10;99.90;;;;;;5080698;28;20044;-72
2022/01/09 05:12:30;;;;;;;27.15;5.03;;;6.00;99.90;;;;;;5083242;28;20483;-73
2022/01/09 05:14:56;;;;;;;30.55;3.83;;;6.00;99.90;;;;;;5084473;28;20047;-73
2022/01/09 05:17:21;;;;;;;29.95;3.63;;;6.10;99.90;;;;;;5081736;28;20040;-73
2022/01/09 05:19:50;;;;;;;28.13;4.10;;;6.10;99.90;;;;;;5082687;28;20040;-73
2022/01/09 05:22:16;;;;;;;25.70;3.92;;;6.00;99.90;;;;;;5079986;28;20056;-73
2022/01/09 05:24:42;;;;;;;28.80;4.25;;;6.00;99.90;;;;;;5087503;28;20094;-73
2022/01/09 05:27:07;;;;;;;26.85;3.22;;;6.00;99.90;;;;;;5081596;28;20040;-72
2022/01/09 05:29:33;;;;;;;28.42;3.33;;;6.00;99.90;;;;;;5110529;27;20048;-73
2022/01/09 05:31:58;;;;;;;30.48;3.33;;;6.00;99.90;;;;;;5080879;28;20433;-72
2022/01/09 05:34:24;;;;;;;32.45;3.85;;;5.90;99.90;;;;;;5081044;28;20076;-72
2022/01/09 05:36:50;;;;;;;27.75;3.65;;;5.90;99.90;;;;;;5086584;28;20105;-72
2022/01/09 05:39:15;;;;;;;24.95;4.55;;;5.90;99.90;;;;;;5086515;28;20028;-73
2022/01/09 05:41:43;;;;;;;25.38;3.08;;;5.90;99.90;;;;;;5077730;28;20080;-73
2022/01/09 05:44:09;;;;;;;16.42;2.45;;;5.90;99.90;;;;;;5080233;28;20032;-72
2022/01/09 05:46:35;;;;;;;24.67;3.17;;;5.80;99.90;;;;;;5081158;28;20502;-72
2022/01/09 05:49:00;;;;;;;25.25;3.47;;;5.80;99.90;;;;;;5082251;28;20075;-73
2022/01/09 05:51:26;;;;;;;21.38;3.15;;;5.80;99.90;;;;;;5082613;28;20028;-73
2022/01/09 05:53:52;;;;;;;25.52;3.80;;;5.80;99.90;;;;;;5063288;28;20625;-72
2022/01/09 05:56:17;;;;;;;26.33;4.05;;;5.80;99.90;;;;;;5083846;28;20075;-73
2022/01/09 05:58:43;;;;;;;24.23;3.28;;;5.80;99.90;;;;;;5078707;28;20067;-72
2022/01/09 06:01:09;;;;;;;28.48;3.90;;;5.80;99.90;;;;;;5082510;28;20028;-73
2022/01/09 06:03:35;;;;;;;24.52;3.60;;;5.70;99.90;;;;;;5085982;28;20047;-73
2022/01/09 06:06:00;;;;;;;20.75;3.45;;;5.80;99.90;;;;;;5081895;28;20552;-73
2022/01/09 06:08:26;;;;;;;19.95;2.42;;;5.70;99.90;;;;;;5081741;28;20028;-73
2022/01/09 06:10:52;;;;;;;18.27;2.80;;;5.70;99.90;;;;;;5081462;28;20036;-73
2022/01/09 06:13:18;;;;;;;22.00;2.83;;;5.80;99.90;;;;;;5115608;27;20032;-73
2022/01/09 06:15:44;;;;;;;31.38;3.60;;;5.70;99.90;;;;;;5080403;28;20089;-72
2022/01/09 06:18:11;;;;;;;30.08;5.85;;;5.70;99.90;;;;;;5078610;28;20426;-73
2022/01/09 06:20:37;;;;;;;27.02;2.60;;;5.70;99.90;;;;;;5080808;28;20101;-73
2022/01/09 06:23:03;;;;;;;22.88;2.78;;;5.80;99.90;;;;;;5081575;28;20052;-73
2022/01/09 06:25:29;;;;;;;29.05;3.55;;;5.70;99.90;;;;;;5084781;28;20123;-73
2022/01/09 06:27:54;;;;;;;23.38;2.85;;;5.70;99.90;;;;;;5079585;28;20063;-73
2022/01/09 06:30:20;;;;;;;27.15;3.45;;;5.70;99.90;;;;;;5082408;28;20044;-73
2022/01/09 06:32:46;;;;;;;29.52;3.80;;;5.70;99.90;;;;;;5076108;28;20040;-73
2022/01/09 06:35:12;;;;;;;16.25;2.53;;;5.70;99.90;;;;;;5083337;28;20035;-73
2022/01/09 06:37:38;;;;;;;24.17;2.83;;;5.70;99.90;;;;;;5081497;28;20058;-73
2022/01/09 06:40:08;;;;;;;27.55;4.15;;;5.70;99.90;;;;;;5076703;28;20039;-73
2022/01/09 06:42:33;;;;;;;26.90;3.05;;;5.70;99.90;;;;;;5081202;28;20050;-72
2022/01/09 06:44:59;;;;;;;16.08;2.58;;;5.70;99.90;;;;;;5083615;28;20487;-73
2022/01/09 06:47:24;;;;;;;22.30;2.60;;;5.70;99.90;;;;;;5088216;28;20036;-73
2022/01/09 06:49:50;;;;;;;20.60;2.92;;;5.70;99.90;;;;;;5090606;28;20040;-73
2022/01/09 06:52:16;;;;;;;30.42;4.95;;;5.60;99.90;;;;;;5087362;28;20118;-73
2022/01/09 06:54:42;;;;;;;22.52;2.92;;;5.70;99.90;;;;;;5122585;27;20040;-73
2022/01/09 06:57:07;;;;;;;21.10;2.97;;;5.60;99.90;;;;;;5088058;28;20486;-73
2022/01/09 06:59:33;;;;;;;20.52;3.28;;;5.60;99.90;;;;;;5119718;27;20361;-73
2022/01/09 07:01:59;;;;;;;20.85;2.95;;;5.60;99.90;;;;;;5086277;28;20576;-73
2022/01/09 07:04:24;;;;;;;25.35;3.15;;;5.50;99.90;;;;;;5084580;28;21760;-73
2022/01/09 07:06:50;;;;;;;19.15;3.40;;;5.40;99.90;;;;;;5089866;28;20046;-73
2022/01/09 07:09:16;;;;;;;19.27;2.90;;;5.50;99.90;;;;;;5081052;28;20028;-72
2022/01/09 07:11:41;;;;;;;20.73;2.25;;;5.40;99.90;;;;;;5086779;28;20040;-73
2022/01/09 07:14:07;;;;;;;14.48;2.28;;;5.40;99.90;;;;;;5081150;28;20131;-73
2022/01/09 07:16:33;;;;;;;21.80;2.60;;;5.40;99.90;;;;;;5081890;28;21554;-73
2022/01/09 07:18:58;;;;;;;19.77;2.08;;;5.30;99.90;;;;;;5083694;28;20032;-73
2022/01/09 07:21:24;;;;;;;12.23;1.98;;;5.30;99.90;;;;;;5095153;27;20129;-73
2022/01/09 07:23:50;;;;;;;10.52;2.00;;;5.30;99.90;;;;;;5079192;28;20032;-73
2022/01/09 07:26:15;;;;;;;16.73;1.98;;;5.30;99.90;;;;;;5093669;27;20040;-73
2022/01/09 07:28:41;;;;;;;20.13;2.30;;;5.30;99.90;;;;;;5076827;28;20089;-73
2022/01/09 07:31:07;;;;;;;13.27;1.83;;;5.30;99.90;;;;;;5079345;28;20048;-73
2022/01/09 07:33:32;;;;;;;8.88;1.52;;;5.20;99.90;;;;;;5113674;27;20067;-73
2022/01/09 07:36:01;;;;;;;14.55;2.00;;;5.20;99.90;;;;;;5110825;27;20036;-73
2022/01/09 07:38:27;;;;;;;10.32;1.40;;;5.20;99.90;;;;;;5084315;28;20041;-74
2022/01/09 07:40:53;;;;;;;14.23;1.52;;;5.20;99.90;;;;;;5078848;28;20047;-74
2022/01/09 07:43:18;;;;;;;10.38;1.27;;;5.20;99.90;;;;;;5080665;28;20040;-74
2022/01/09 07:45:44;;;;;;;12.45;1.42;;;5.20;99.90;;;;;;5077817;28;20054;-74
2022/01/09 07:48:10;;;;;;;10.55;1.40;;;5.10;99.90;;;;;;5069845;28;20055;-74
2022/01/09 07:50:36;;;;;;;14.63;2.05;;;5.10;99.90;;;;;;5082692;28;20047;-74
2022/01/09 07:53:02;;;;;;;12.27;2.92;;;5.10;99.90;;;;;;5084223;28;20044;-74
2022/01/09 07:55:28;;;;;;;15.43;1.92;;;5.10;99.90;;;;;;5087229;28;20063;-74
2022/01/09 07:57:54;;;;;;;13.85;1.55;;;5.10;99.90;;;;;;5115770;27;20495;-73
2022/01/09 08:00:20;;;;;;;17.17;2.33;;;5.10;99.90;;;;;;5083999;28;20470;-73
2022/01/09 08:02:47;;;;;;;15.57;2.08;;;5.00;99.90;;;;;;5085171;28;20047;-73
2022/01/09 08:05:14;;;;;;;13.27;1.83;;;5.00;99.90;;;;;;5086365;28;20065;-73
2022/01/09 08:07:41;;;;;;;10.63;1.42;;;5.00;99.90;;;;;;5082554;28;20070;-74
2022/01/09 08:10:07;;;;;;;13.32;2.30;;;5.00;99.90;;;;;;5085712;28;20035;-73
2022/01/09 08:12:33;;;;;;;14.07;2.92;;;5.00;99.90;;;;;;5086000;28;20048;-73
2022/01/09 08:14:59;;;;;;;10.70;1.67;;;5.00;99.90;;;;;;5086573;28;20079;-72
2022/01/09 08:17:24;;;;;;;15.48;1.45;;;5.00;99.90;;;;;;5118423;27;20051;-73
2022/01/09 08:19:51;;;;;;;14.75;3.85;;;4.90;99.90;;;;;;5082009;28;20398;-72
2022/01/09 08:22:16;;;;;;;10.07;1.25;;;5.00;99.90;;;;;;5075318;28;20040;-73
2022/01/09 08:24:42;;;;;;;12.02;1.52;;;5.00;99.90;;;;;;5081732;28;20048;-73
2022/01/09 08:27:09;;;;;;;12.07;1.48;;;5.00;99.90;;;;;;5116639;27;20090;-72
2022/01/09 08:29:35;;;;;;;9.35;1.27;;;5.00;99.90;;;;;;5091178;28;20142;-72
2022/01/09 08:32:01;;;;;;;14.07;2.35;;;5.10;99.90;;;;;;5080788;28;20541;-72
2022/01/09 08:34:27;;;;;;;11.82;1.55;;;5.10;99.90;;;;;;5081212;28;20199;-73
2022/01/09 08:36:53;;;;;;;12.52;1.52;;;5.10;99.90;;;;;;5080953;28;20068;-72
2022/01/09 08:39:19;;;;;;;8.20;1.38;;;5.10;99.90;;;;;;5077510;28;20067;-72
2022/01/09 08:41:45;;;;;;;12.15;1.88;;;5.20;99.90;;;;;;5078297;28;20091;-72
2022/01/09 08:44:10;;;;;;;11.93;1.67;;;5.10;99.90;;;;;;5110421;27;20040;-73
2022/01/09 08:46:37;;;;;;;15.38;1.65;;;5.20;99.90;;;;;;5080829;28;20040;-72
2022/01/09 08:49:04;;;;;;;8.68;1.23;;;5.20;99.90;;;;;;5113279;27;20119;-72
2022/01/09 08:51:30;;;;;;;12.05;1.73;;;5.20;99.90;;;;;;5078272;28;20041;-73
2022/01/09 08:53:57;;;;;;;10.00;1.40;;;5.20;99.90;;;;;;5107882;27;20056;-73
2022/01/09 08:56:26;;;;;;;12.88;1.80;;;5.20;99.90;;;;;;5079770;28;20390;-73
2022/01/09 08:58:52;;;;;;;14.20;2.00;;;5.20;99.90;;;;;;5076126;28;20529;-73
2022/01/09 09:01:18;;;;;;;12.13;1.45;;;5.20;99.90;;;;;;5078079;28;20036;-73
2022/01/09 09:03:44;;;;;;;16.75;2.58;;;5.20;99.90;;;;;;5077329;28;20047;-73
2022/01/09 09:06:12;;;;;;;11.95;1.15;;;5.30;99.90;;;;;;5082416;28;20040;-73
2022/01/09 09:08:38;;;;;;;17.70;1.63;;;5.30;99.90;;;;;;5084593;28;20082;-73
2022/01/09 09:11:06;;;;;;;10.60;1.58;;;5.30;99.90;;;;;;5084202;28;20040;-72
2022/01/09 09:13:32;;;;;;;11.45;1.58;;;5.30;99.90;;;;;;5090124;28;20040;-72
2022/01/09 09:15:57;;;;;;;14.30;1.98;;;5.40;99.90;;;;;;5092248;28;20036;-73
2022/01/09 09:18:23;;;;;;;12.07;1.35;;;5.40;99.90;;;;;;5090744;28;20043;-73
2022/01/09 09:20:49;;;;;;;18.83;2.75;;;5.40;99.90;;;;;;5085066;28;20064;-73
2022/01/09 09:23:15;;;;;;;12.27;1.90;;;5.30;99.90;;;;;;5088322;28;20044;-73
2022/01/09 09:25:40;;;;;;;15.15;1.65;;;5.40;99.90;;;;;;5124996;27;20043;-72
2022/01/09 09:28:06;;;;;;;10.73;1.55;;;5.40;99.90;;;;;;5093507;28;20075;-73
2022/01/09 09:30:31;;;;;;;9.80;1.88;;;5.40;99.90;;;;;;5095884;28;20089;-73
2022/01/09 09:32:57;;;;;;;14.85;2.25;;;5.50;99.90;;;;;;5089624;28;20048;-72
2022/01/09 09:35:23;;;;;;;13.02;1.42;;;5.50;99.90;;;;;;5089889;28;20036;-73
2022/01/09 09:37:49;;;;;;;7.90;1.63;;;5.50;99.90;;;;;;5087417;28;20043;-73
2022/01/09 09:40:14;;;;;;;8.75;1.70;;;5.50;99.90;;;;;;5085771;28;20469;-73
2022/01/09 09:42:41;;;;;;;13.75;1.67;;;5.50;99.90;;;;;;5068328;28;20074;-73
2022/01/09 09:45:09;;;;;;;13.85;1.33;;;5.50;99.90;;;;;;5088039;28;20053;-73
2022/01/09 09:47:36;;;;;;;11.50;2.03;;;5.50;99.90;;;;;;5117198;27;20043;-72
2022/01/09 09:50:05;;;;;;;12.30;1.67;;;5.60;99.90;;;;;;5085837;28;20051;-72
2022/01/09 09:52:30;;;;;;;11.77;2.15;;;5.60;99.90;;;;;;5087540;28;20036;-73
2022/01/09 09:54:57;;;;;;;10.98;1.73;;;5.60;99.90;;;;;;5085969;28;20035;-73
2022/01/09 09:57:23;;;;;;;8.27;1.17;;;5.60;99.90;;;;;;5085452;28;20520;-72
2022/01/09 09:59:48;;;;;;;10.52;1.60;;;5.60;99.90;;;;;;5087554;28;20123;-73
2022/01/09 10:02:16;;;;;;;9.85;1.42;;;5.60;99.90;;;;;;5086847;28;20115;-73
2022/01/09 10:04:57;;;;;;;5.05;1.13;;;5.60;99.90;;;;;;5087083;28;20094;-73
2022/01/09 10:07:23;;;;;;;15.15;1.40;;;5.70;99.90;;;;;;5086598;28;20075;-72
2022/01/09 10:09:58;;;;;;;7.43;1.20;;;5.60;99.90;;;;;;5085781;28;20080;-73
2022/01/09 10:12:28;;;;;;;9.73;1.15;;;5.70;99.90;;;;;;5090810;28;20079;-72
2022/01/09 10:15:03;;;;;;;6.97;1.25;;;5.70;99.90;;;;;;5086917;28;20039;-73
2022/01/09 10:17:30;;;;;;;7.07;1.38;;;5.70;99.90;;;;;;5090700;28;20127;-72
2022/01/09 10:20:10;;;;;;;5.07;0.73;;;5.70;99.90;;;;;;5084879;28;20453;-73
2022/01/09 10:22:39;;;;;;;5.13;0.75;;;5.70;99.90;;;;;;5089159;28;20114;-72
2022/01/09 10:25:37;;;;;;;7.40;0.82;;;5.80;99.90;;;;;;5083809;28;20044;-73
2022/01/09 10:28:14;;;;;;;4.18;0.82;;;5.80;99.90;;;;;;5089382;28;20036;-73
2022/01/09 10:30:51;;;;;;;4.03;0.60;;;5.80;99.90;;;;;;5086162;28;20116;-73
2022/01/09 10:33:24;;;;;;;3.47;0.30;;;5.70;99.90;;;;;;5119662;27;20044;-73
2022/01/09 10:35:50;;;;;;;3.95;0.88;;;5.80;99.90;;;;;;5100070;27;20055;-73
2022/01/09 10:38:22;;;;;;;6.88;0.60;;;5.80;99.90;;;;;;5090369;28;20036;-72
2022/01/09 10:41:03;;;;;;;4.13;0.50;;;5.90;99.90;;;;;;5084167;28;20044;-73
2022/01/09 10:43:40;;;;;;;5.32;1.10;;;5.90;99.90;;;;;;5085244;28;20085;-73
2022/01/09 10:46:07;;;;;;;7.70;1.05;;;6.00;99.90;;;;;;5117157;27;20075;-73
2022/01/09 10:48:36;;;;;;;6.57;0.93;;;6.10;99.90;;;;;;5088247;28;20484;-72
2022/01/09 10:51:05;;;;;;;7.82;0.75;;;6.10;99.90;;;;;;5085481;28;20101;-73
2022/01/09 10:53:31;;;;;;;8.82;1.45;;;6.20;99.90;;;;;;5090956;28;20048;-73
2022/01/09 10:56:15;;;;;;;11.88;1.10;;;6.20;99.90;;;;;;5082189;28;20085;-73
2022/01/09 10:58:44;;;;;;;10.13;1.50;;;6.20;99.90;;;;;;5086614;28;20080;-73
2022/01/09 11:01:13;;;;;;;9.30;0.88;;;6.20;99.90;;;;;;5084870;28;20051;-73
2022/01/09 11:03:41;;;;;;;16.13;0.98;;;6.30;99.90;;;;;;5088459;28;20047;-73
2022/01/09 11:06:09;;;;;;;6.30;0.80;;;6.30;99.90;;;;;;5085105;28;20101;-73
2022/01/09 11:08:36;;;;;;;8.38;1.50;;;6.40;99.90;;;;;;5085533;28;20413;-73
2022/01/09 11:11:07;;;;;;;8.52;1.40;;;6.60;99.90;;;;;;5085044;28;20436;-73
2022/01/09 11:13:37;;;;;;;10.82;1.30;;;6.70;99.90;;;;;;5083375;28;20401;-73
2022/01/09 11:18:48;;;;;;;7.50;1.10;;;6.90;99.90;;;;;;5120962;27;20060;-73
2022/01/09 11:21:14;;;;;;;6.38;1.23;;;6.90;99.90;;;;;;5098077;27;20378;-73
2022/01/09 11:24:07;;;;;;;8.68;1.63;;;7.00;99.90;;;;;;5083218;28;20188;-73
2022/01/09 11:26:47;;;;;;;9.60;1.33;;;7.10;99.90;;;;;;5080349;28;20047;-73
2022/01/09 11:29:17;;;;;;;9.02;1.42;;;7.10;99.90;;;;;;5079311;28;20616;-73
2022/01/09 11:32:10;;;;;;;12.55;1.23;;;7.30;99.90;;;;;;5080843;28;20039;-73
2022/01/09 11:35:06;;;;;;;11.30;2.45;;;7.40;99.90;;;;;;5075326;28;20119;-73
2022/01/09 11:37:59;;;;;;;8.48;1.40;;;7.60;99.90;;;;;;5113654;27;20044;-73
2022/01/09 11:40:33;;;;;;;7.13;1.13;;;7.80;99.90;;;;;;5083559;28;20044;-73
2022/01/09 11:43:13;;;;;;;10.65;1.88;;;8.00;99.90;;;;;;5081052;28;20041;-74
2022/01/09 11:45:48;;;;;;;11.00;1.58;;;8.00;99.90;;;;;;5079373;28;20047;-74
2022/01/09 11:48:41;;;;;;;10.98;1.35;;;8.00;99.90;;;;;;5076944;28;20055;-74
2022/01/09 11:51:06;;;;;;;8.38;1.40;;;8.00;99.90;;;;;;5071918;28;20052;-73
2022/01/09 11:54:10;;;;;;;8.27;1.92;;;8.00;99.90;;;;;;5076792;28;20047;-73
2022/01/09 11:56:42;;;;;;;9.50;1.50;;;8.00;99.90;;;;;;5079711;28;20155;-73
2022/01/09 11:59:37;;;;;;;10.65;1.27;;;8.00;99.90;;;;;;5080318;28;20470;-73
2022/01/09 12:02:06;;;;;;;10.35;2.25;;;8.00;99.90;;;;;;5082614;28;20053;-73
2022/01/09 12:04:32;;;;;;;10.52;1.60;;;7.90;99.90;;;;;;5078719;28;20044;-73
2022/01/09 12:07:03;;;;;;;12.65;1.38;;;7.90;99.90;;;;;;5079326;28;20494;-74
2022/01/09 12:09:36;;;;;;;14.32;2.10;;;7.90;99.90;;;;;;5078287;28;20071;-73
2022/01/09 12:12:15;;;;;;;9.98;1.35;;;7.90;99.90;;;;;;5081975;28;20052;-73
2022/01/09 12:17:31;;;;;;;11.95;2.53;;;8.20;99.90;;;;;;5079281;28;20397;-73
2022/01/09 12:20:10;;;;;;;10.50;1.33;;;8.20;99.90;;;;;;5079335;28;20048;-74
2022/01/09 12:22:51;;;;;;;10.20;1.55;;;8.20;99.90;;;;;;5116206;27;20036;-74
2022/01/09 12:25:38;;;;;;;13.57;2.45;;;8.20;99.90;;;;;;5080666;28;20040;-74
2022/01/09 12:28:11;;;;;;;9.93;2.17;;;8.10;99.90;;;;;;5112869;27;20039;-74
2022/01/09 12:30:44;;;;;;;13.95;1.83;;;8.10;99.90;;;;;;5078544;28;20598;-74
2022/01/09 12:33:11;;;;;;;11.30;1.58;;;8.00;99.90;;;;;;5078788;28;20071;-74
2022/01/09 12:35:43;;;;;;;22.90;2.65;;;8.00;99.90;;;;;;5079296;28;20130;-75
2022/01/09 12:38:16;;;;;;;17.85;2.25;;;8.10;99.90;;;;;;5080834;28;20061;-74
2022/01/09 12:40:44;;;;;;;13.30;1.63;;;7.90;99.90;;;;;;5080750;28;20033;-74
2022/01/09 12:43:10;;;;;;;12.65;2.33;;;7.90;99.90;;;;;;5080524;28;20538;-74
2022/01/09 12:45:41;;;;;;;20.63;2.10;;;7.90;99.90;;;;;;5080645;28;20486;-74
2022/01/09 12:48:07;;;;;;;18.42;2.28;;;7.90;99.90;;;;;;5081653;28;20081;-74
2022/01/09 12:50:35;;;;;;;12.38;2.20;;;7.90;99.90;;;;;;5085928;28;20040;-74
2022/01/09 12:53:13;;;;;;;10.45;2.35;;;7.80;99.90;;;;;;5114074;27;20076;-75
2022/01/09 12:56:01;;;;;;;9.93;1.83;;;7.90;99.90;;;;;;5116729;27;20054;-75
2022/01/09 12:58:32;;;;;;;13.77;2.05;;;7.80;99.90;;;;;;5084631;28;20101;-74
2022/01/09 13:01:00;;;;;;;11.95;1.20;;;8.00;99.90;;;;;;5079705;28;20111;-74